createdAt,value
2019-05-25T19:54:22.146Z,1010.77
2019-05-25T19:55:22.130Z,1010.74
2019-05-25T19:57:16.405Z,1010.81
2019-05-25T19:58:16.423Z,1010.74
2019-05-25T20:00:10.114Z,1010.79
2019-05-25T20:01:10.106Z,1010.77
2019-05-25T20:03:04.093Z,1010.80
2019-05-25T20:04:04.101Z,1010.81
2019-05-25T20:05:15.570Z,1010.85
2019-05-25T20:06:04.116Z,1010.83
2019-05-25T20:07:04.112Z,1010.85
2019-05-25T20:08:04.143Z,1010.83
2019-05-25T20:09:04.142Z,1010.83
2019-05-25T20:10:04.151Z,1010.83
2019-05-25T20:11:04.167Z,1010.83
2019-05-25T20:12:04.170Z,1010.86
2019-05-25T20:13:04.177Z,1010.81
2019-05-25T20:15:04.199Z,1010.88
2019-05-25T20:16:04.220Z,1010.89
2019-05-25T20:17:04.218Z,1010.92
2019-05-25T20:18:04.226Z,1010.94
2019-05-25T20:19:04.246Z,1010.91
2019-05-25T20:20:04.247Z,1010.91
2019-05-25T20:21:04.264Z,1010.89
2019-05-25T20:22:04.266Z,1010.92
2019-05-25T20:23:04.280Z,1010.96
2019-05-25T20:24:04.281Z,1010.93
2019-05-25T20:25:04.317Z,1010.88
2019-05-25T20:26:04.299Z,1010.97
2019-05-25T20:27:04.370Z,1010.93
2019-05-25T20:28:04.321Z,1010.90
2019-05-25T20:29:04.355Z,1010.90
2019-05-25T20:30:04.338Z,1010.88
2019-05-25T20:31:04.370Z,1010.89
2019-05-25T20:32:04.348Z,1010.91
2019-05-25T20:33:04.369Z,1010.95
2019-05-25T20:34:04.387Z,1010.92
2019-05-25T20:35:04.385Z,1010.90
2019-05-25T20:36:04.392Z,1010.90
2019-05-25T20:37:04.426Z,1010.92
2019-05-25T20:38:04.435Z,1010.90
2019-05-25T20:39:04.427Z,1010.91
2019-05-25T20:40:04.511Z,1010.85
2019-05-25T20:41:04.444Z,1010.89
2019-05-25T20:42:04.451Z,1010.88
2019-05-25T20:43:04.457Z,1010.89
2019-05-25T20:44:04.469Z,1010.92
2019-05-25T20:45:04.483Z,1010.92
2019-05-25T20:46:04.489Z,1010.90
2019-05-25T20:47:04.503Z,1010.91
2019-05-25T20:48:04.507Z,1010.94
2019-05-25T20:49:04.523Z,1010.94
2019-05-25T20:50:04.562Z,1010.96
2019-05-25T20:51:04.537Z,1011.00
2019-05-25T20:52:04.548Z,1010.96
2019-05-25T20:53:04.549Z,1010.99
2019-05-25T20:54:04.561Z,1010.99
2019-05-25T20:55:04.579Z,1010.97
2019-05-25T20:57:04.592Z,1010.96
2019-05-25T20:58:04.602Z,1011.00
2019-05-25T20:59:04.617Z,1010.98
2019-05-25T21:00:04.638Z,1010.96
2019-05-25T21:01:04.630Z,1010.95
2019-05-25T21:02:04.648Z,1010.93
2019-05-25T21:03:06.744Z,1010.99
2019-05-25T21:04:04.656Z,1010.96
2019-05-25T21:05:04.795Z,1010.94
2019-05-25T21:06:04.675Z,1010.97
2019-05-25T21:07:04.690Z,1010.96
2019-05-25T21:08:04.766Z,1010.96
2019-05-25T21:09:04.701Z,1010.96
2019-05-25T21:10:04.712Z,1010.94
2019-05-25T21:11:04.720Z,1010.97
2019-05-25T21:12:04.731Z,1010.94
2019-05-25T21:13:04.744Z,1010.94
2019-05-25T21:14:04.750Z,1010.93
2019-05-25T21:15:04.803Z,1010.93
2019-05-25T21:16:04.766Z,1010.93
2019-05-25T21:17:04.793Z,1010.88
2019-05-25T21:18:04.789Z,1010.88
2019-05-25T21:19:04.806Z,1010.88
2019-05-25T21:20:04.802Z,1010.86
2019-05-25T21:21:04.817Z,1010.84
2019-05-25T21:22:04.816Z,1010.83
2019-05-25T21:23:04.839Z,1010.84
2019-05-25T21:24:04.842Z,1010.86
2019-05-25T21:25:06.188Z,1010.87
2019-05-25T21:26:04.870Z,1010.82
2019-05-25T21:27:04.861Z,1010.87
2019-05-25T21:28:04.893Z,1010.87
2019-05-25T21:29:04.888Z,1010.86
2019-05-25T21:30:04.899Z,1010.87
2019-05-25T21:31:04.909Z,1010.84
2019-05-25T21:32:04.912Z,1010.81
2019-05-25T21:33:04.911Z,1010.84
2019-05-25T21:34:04.939Z,1010.84
2019-05-25T21:35:05.049Z,1010.81
2019-05-25T21:36:08.703Z,1010.82
2019-05-25T21:37:04.965Z,1010.81
2019-05-25T21:38:04.984Z,1010.85
2019-05-25T21:39:04.987Z,1010.83
2019-05-25T21:40:04.987Z,1010.83
2019-05-25T21:41:04.996Z,1010.87
2019-05-25T21:42:05.005Z,1010.82
2019-05-25T21:43:05.020Z,1010.83
2019-05-25T21:44:05.020Z,1010.83
2019-05-25T21:45:05.033Z,1010.85
2019-05-25T21:46:05.061Z,1010.85
2019-05-25T21:47:05.059Z,1010.86
2019-05-25T21:49:05.060Z,1010.84
2019-05-25T21:50:05.085Z,1010.82
2019-05-25T21:51:05.096Z,1010.83
2019-05-25T21:53:05.109Z,1010.85
2019-05-25T21:54:05.121Z,1010.82
2019-05-25T21:55:05.122Z,1010.80
2019-05-25T21:56:05.134Z,1010.83
2019-05-25T21:58:05.158Z,1010.78
2019-05-25T21:59:05.163Z,1010.78
2019-05-25T22:00:05.180Z,1010.78
2019-05-25T22:01:05.182Z,1010.78
2019-05-25T22:02:05.188Z,1010.75
2019-05-25T22:03:05.197Z,1010.74
2019-05-25T22:04:05.213Z,1010.72
2019-05-25T22:05:05.209Z,1010.76
2019-05-25T22:06:05.217Z,1010.68
2019-05-25T22:07:05.226Z,1010.69
2019-05-25T22:08:05.242Z,1010.68
2019-05-25T22:09:05.251Z,1010.70
2019-05-25T22:10:05.257Z,1010.64
2019-05-25T22:11:05.273Z,1010.60
2019-05-25T22:12:05.269Z,1010.63
2019-05-25T22:13:05.287Z,1010.59
2019-05-25T22:14:06.022Z,1010.57
2019-05-25T22:15:05.305Z,1010.57
2019-05-25T22:16:05.311Z,1010.58
2019-05-25T22:17:05.318Z,1010.54
2019-05-25T22:18:05.358Z,1010.52
2019-05-25T22:19:05.338Z,1010.49
2019-05-25T22:20:05.347Z,1010.51
2019-05-25T22:21:05.352Z,1010.47
2019-05-25T22:22:05.360Z,1010.49
2019-05-25T22:23:05.372Z,1010.47
2019-05-25T22:24:05.392Z,1010.46
2019-05-25T22:25:05.389Z,1010.46
2019-05-25T22:26:05.401Z,1010.43
2019-05-25T22:27:05.408Z,1010.41
2019-05-25T22:28:05.417Z,1010.42
2019-05-25T22:29:05.445Z,1010.44
2019-05-25T22:30:05.432Z,1010.42
2019-05-25T22:31:05.440Z,1010.43
2019-05-25T22:32:05.458Z,1010.41
2019-05-25T22:33:05.467Z,1010.38
2019-05-25T22:34:05.477Z,1010.37
2019-05-25T22:35:05.480Z,1010.36
2019-05-25T22:36:05.494Z,1010.36
2019-05-25T22:37:05.503Z,1010.31
2019-05-25T22:38:05.507Z,1010.27
2019-05-25T22:39:05.509Z,1010.27
2019-05-25T22:40:05.530Z,1010.27
2019-05-25T22:41:05.526Z,1010.22
2019-05-25T22:42:05.547Z,1010.17
2019-05-25T22:43:05.556Z,1010.16
2019-05-25T22:44:05.560Z,1010.16
2019-05-25T22:45:05.568Z,1010.11
2019-05-25T22:46:05.565Z,1010.16
2019-05-25T22:47:05.577Z,1010.08
2019-05-25T22:48:05.588Z,1010.11
2019-05-25T22:49:05.596Z,1010.08
2019-05-25T22:50:05.604Z,1010.11
2019-05-25T22:51:05.614Z,1010.12
2019-05-25T22:52:05.619Z,1010.14
2019-05-25T22:53:05.629Z,1010.08
2019-05-25T22:54:05.641Z,1010.09
2019-05-25T22:55:05.652Z,1010.09
2019-05-25T22:56:05.654Z,1010.07
2019-05-25T22:57:05.666Z,1010.04
2019-05-25T22:58:05.672Z,1010.07
2019-05-25T22:59:05.683Z,1010.06
2019-05-25T23:00:05.693Z,1010.05
2019-05-25T23:01:05.700Z,1010.05
2019-05-25T23:02:05.718Z,1009.99
2019-05-25T23:03:05.725Z,1010.01
2019-05-25T23:04:05.723Z,1010.03
2019-05-25T23:05:07.291Z,1010.00
2019-05-25T23:06:05.742Z,1010.00
2019-05-25T23:07:05.745Z,1010.00
2019-05-25T23:08:05.753Z,1010.00
2019-05-25T23:09:05.772Z,1009.97
2019-05-25T23:11:05.786Z,1009.95
2019-05-25T23:12:05.795Z,1009.92
2019-05-25T23:13:05.796Z,1009.93
2019-05-25T23:14:09.102Z,1009.95
2019-05-25T23:15:05.816Z,1009.96
2019-05-25T23:16:05.829Z,1009.92
2019-05-25T23:17:05.835Z,1009.95
2019-05-25T23:18:05.891Z,1009.94
2019-05-25T23:19:05.874Z,1009.96
2019-05-25T23:20:05.868Z,1009.93
2019-05-25T23:21:05.865Z,1009.94
2019-05-25T23:22:05.874Z,1009.94
2019-05-25T23:23:05.884Z,1009.93
2019-05-25T23:24:05.890Z,1009.91
2019-05-25T23:25:05.907Z,1009.91
2019-05-25T23:26:05.899Z,1009.90
2019-05-25T23:27:05.909Z,1009.92
2019-05-25T23:28:05.926Z,1009.89
2019-05-25T23:29:05.926Z,1009.88
2019-05-25T23:30:05.932Z,1009.90
2019-05-25T23:31:05.954Z,1009.90
2019-05-25T23:32:05.966Z,1009.88
2019-05-25T23:33:05.980Z,1009.86
2019-05-25T23:34:05.969Z,1009.85
2019-05-25T23:35:05.986Z,1009.85
2019-05-25T23:36:05.999Z,1009.86
2019-05-25T23:37:14.844Z,1009.86
2019-05-25T23:38:08.630Z,1009.86
2019-05-25T23:39:06.017Z,1009.86
2019-05-25T23:40:06.025Z,1009.84
2019-05-25T23:41:06.037Z,1009.86
2019-05-25T23:42:06.042Z,1009.89
2019-05-25T23:43:06.050Z,1009.83
2019-05-25T23:44:06.066Z,1009.83
2019-05-25T23:45:06.076Z,1009.78
2019-05-25T23:46:06.071Z,1009.79
2019-05-25T23:47:06.086Z,1009.80
2019-05-25T23:48:06.165Z,1009.77
2019-05-25T23:49:06.226Z,1009.80
2019-05-25T23:50:06.294Z,1009.80
2019-05-25T23:51:06.233Z,1009.82
2019-05-25T23:52:06.135Z,1009.78
2019-05-25T23:53:06.189Z,1009.78
2019-05-25T23:54:06.281Z,1009.81
2019-05-25T23:55:06.331Z,1009.80
2019-05-25T23:56:06.214Z,1009.81
2019-05-25T23:57:06.169Z,1009.80
2019-05-25T23:58:06.172Z,1009.82
2019-05-25T23:59:06.180Z,1009.79
